Time;durP1;ratioP1;P1;durP2;ratioP2;P2;SDS_P1;SDS_P2;PMS_P1;PMS_P2;Temp;Humidity;BMP_temperature;BMP_pressure;BME280_temperature;BME280_humidity;BME280_pressure;Samples;Min_cycle;Max_cycle;Signal;HPM_P1;HPM_P2
2023/05/17 00:00:22;;;;;;;;;;;;;;;;;;1042740;28;3371;-50
2023/05/17 00:01:13;;;;;;;;;;;;;;;;;;1038451;28;4215;-45
2023/05/17 00:01:43;;;;;;;;;;;;;;;;;;1036773;28;2879;-46
2023/05/17 00:02:13;;;;;;;;;;;;;;;;;;1038056;28;3964;-49
2023/05/17 00:02:45;;;;;;;;;;;;;;;;;;1040134;28;2983;-51
2023/05/17 00:03:15;;;;;;;;;;;;;;;;;;1041200;28;3996;-50
2023/05/17 00:03:45;;;;;;;;;;;;;;;;;;1041399;28;3156;-47
2023/05/17 00:04:16;;;;;;;;;;;;;;;;;;1041970;28;3939;-48
2023/05/17 00:04:46;;;;;;;;;;;;;;;;;;1041746;28;2939;-52
2023/05/17 00:05:16;;;;;;;;;;;;;;;;;;1042809;28;3787;-47
2023/05/17 00:05:47;;;;;;;;;;;;;;;;;;1043354;28;1989;-50
2023/05/17 00:06:17;;;;;;;;;;;;;;;;;;1042075;28;4068;-46
2023/05/17 00:06:47;;;;;;;;;;;;;;;;;;1042984;28;2491;-46
2023/05/17 00:07:17;;;;;;;;;;;;;;;;;;1041592;28;3893;-51
2023/05/17 00:07:48;;;;;;;;;;;;;;;;;;1041163;28;2868;-45
2023/05/17 00:08:18;;;;;;;;;;;;;;;;;;1041159;28;3775;-45
2023/05/17 00:08:49;;;;;;;;;;;;;;;;;;1042968;28;1700;-47
2023/05/17 00:09:19;;;;;;;;;;;;;;;;;;1040698;28;4151;-45
2023/05/17 00:09:49;;;;;;;;;;;;;;;;;;1037738;28;3059;-47
2023/05/17 00:10:20;;;;;;;;;;;;;;;;;;1037448;28;3935;-48
2023/05/17 00:10:50;;;;;;;;;;;;;;;;;;1037613;28;3053;-46
2023/05/17 00:11:21;;;;;;;;;;;;;;;;;;1038121;28;4054;-46
2023/05/17 00:11:51;;;;;;;;;;;;;;;;;;1041214;28;3886;-47
2023/05/17 00:12:21;;;;;;;;;;;;;;;;;;1038329;28;1653;-49
2023/05/17 00:12:51;;;;;;;;;;;;;;;;;;1038503;28;3834;-49
2023/05/17 00:13:22;;;;;;;;;;;;;;;;;;1033920;28;2108;-46
2023/05/17 00:13:52;;;;;;;;;;;;;;;;;;1033232;28;4417;-45
2023/05/17 00:14:22;;;;;;;;;;;;;;;;;;1033443;28;2653;-54
2023/05/17 00:14:53;;;;;;;;;;;;;;;;;;1034277;28;4029;-49
2023/05/17 00:15:23;;;;;;;;;;;;;;;;;;1036313;28;3177;-50
2023/05/17 00:15:53;;;;;;;;;;;;;;;;;;1036835;28;3998;-45
2023/05/17 00:16:23;;;;;;;;;;;;;;;;;;1038716;28;1976;-50
2023/05/17 00:16:54;;;;;;;;;;;;;;;;;;1038051;28;3803;-46
2023/05/17 00:17:24;;;;;;;;;;;;;;;;;;1039174;28;2037;-48
2023/05/17 00:17:56;;;;;;;;;;;;;;;;;;1035193;28;3818;-47
2023/05/17 00:18:26;;;;;;;;;;;;;;;;;;1038298;28;3028;-47
2023/05/17 00:18:56;;;;;;;;;;;;;;;;;;1037880;28;4075;-47
2023/05/17 00:19:26;;;;;;;;;;;;;;;;;;1039109;28;1108;-51
2023/05/17 00:19:57;;;;;;;;;;;;;;;;;;1037097;28;4019;-48
2023/05/17 00:20:28;;;;;;;;;;;;;;;;;;1038797;28;1429;-46
2023/05/17 00:20:58;;;;;;;;;;;;;;;;;;1037749;28;4211;-49
2023/05/17 00:21:28;;;;;;;;;;;;;;;;;;1035982;28;3311;-49
2023/05/17 00:21:58;;;;;;;;;;;;;;;;;;1036115;28;3849;-51
2023/05/17 00:22:29;;;;;;;;;;;;;;;;;;1039161;28;1625;-51
2023/05/17 00:23:00;;;;;;;;;;;;;;;;;;1036620;28;4053;-49
2023/05/17 00:23:30;;;;;;;;;;;;;;;;;;1039023;28;1957;-47
2023/05/17 00:24:00;;;;;;;;;;;;;;;;;;1038733;28;4091;-48
2023/05/17 00:24:31;;;;;;;;;;;;;;;;;;1036200;28;2796;-47
2023/05/17 00:25:01;;;;;;;;;;;;;;;;;;1034890;28;4063;-47
2023/05/17 00:25:31;;;;;;;;;;;;;;;;;;1037981;28;1601;-46
2023/05/17 00:26:02;;;;;;;;;;;;;;;;;;1035387;28;4428;-48
2023/05/17 00:26:32;;;;;;;;;;;;;;;;;;1035642;28;2930;-49
2023/05/17 00:27:03;;;;;;;;;;;;;;;;;;1034743;28;4070;-51
2023/05/17 00:27:33;;;;;;;;;;;;;;;;;;1036557;28;3369;-49
2023/05/17 00:28:03;;;;;;;;;;;;;;;;;;1036320;28;4025;-50
2023/05/17 00:28:34;;;;;;;;;;;;;;;;;;1036780;28;2991;-45
2023/05/17 00:29:04;;;;;;;;;;;;;;;;;;1036969;28;3995;-51
2023/05/17 00:29:34;;;;;;;;;;;;;;;;;;1038195;28;3237;-53
2023/05/17 00:30:06;;;;;;;;;;;;;;;;;;1036485;28;3957;-50
2023/05/17 00:30:36;;;;;;;;;;;;;;;;;;1036849;28;2834;-47
2023/05/17 00:31:06;;;;;;;;;;;;;;;;;;1035499;28;4780;-49
2023/05/17 00:31:37;;;;;;;;;;;;;;;;;;1036517;28;2904;-46
2023/05/17 00:32:07;;;;;;;;;;;;;;;;;;1037858;28;4392;-46
2023/05/17 00:32:37;;;;;;;;;;;;;;;;;;1038670;28;1804;-47
2023/05/17 00:33:07;;;;;;;;;;;;;;;;;;1037786;28;4065;-49
2023/05/17 00:33:38;;;;;;;;;;;;;;;;;;1037186;28;3772;-46
2023/05/17 00:34:08;;;;;;;;;;;;;;;;;;1038079;28;3968;-49
2023/05/17 00:34:38;;;;;;;;;;;;;;;;;;1036608;28;3496;-49
2023/05/17 00:35:09;;;;;;;;;;;;;;;;;;1037406;28;4585;-49
2023/05/17 00:35:39;;;;;;;;;;;;;;;;;;1038053;28;3155;-52
2023/05/17 00:36:09;;;;;;;;;;;;;;;;;;1037622;28;4206;-49
2023/05/17 00:36:40;;;;;;;;;;;;;;;;;;1038992;28;1747;-47
2023/05/17 00:37:10;;;;;;;;;;;;;;;;;;1031650;28;4036;-49
2023/05/17 00:37:46;;;;;;;;;;;;;;;;;;1034146;28;1971;-51
2023/05/17 00:38:16;;;;;;;;;;;;;;;;;;1031435;28;3747;-50
2023/05/17 00:38:46;;;;;;;;;;;;;;;;;;1032624;28;2848;-52
2023/05/17 00:39:17;;;;;;;;;;;;;;;;;;1041653;28;4175;-50
2023/05/17 00:39:47;;;;;;;;;;;;;;;;;;1040071;28;2859;-52
2023/05/17 00:40:17;;;;;;;;;;;;;;;;;;1039145;28;3959;-46
2023/05/17 00:40:49;;;;;;;;;;;;;;;;;;1041915;28;2670;-50
2023/05/17 00:41:19;;;;;;;;;;;;;;;;;;1040642;28;3950;-47
2023/05/17 00:41:49;;;;;;;;;;;;;;;;;;1041422;28;2893;-47
2023/05/17 00:42:19;;;;;;;;;;;;;;;;;;1040583;28;3770;-48
2023/05/17 00:42:50;;;;;;;;;;;;;;;;;;1039691;28;3550;-47
2023/05/17 00:43:20;;;;;;;;;;;;;;;;;;1040466;28;4278;-47
2023/05/17 00:43:50;;;;;;;;;;;;;;;;;;1042793;28;2838;-50
2023/05/17 00:44:21;;;;;;;;;;;;;;;;;;1037126;28;6543;-50
2023/05/17 00:44:51;;;;;;;;;;;;;;;;;;1035827;28;3858;-46
2023/05/17 00:45:21;;;;;;;;;;;;;;;;;;1037947;28;2969;-50
2023/05/17 00:45:52;;;;;;;;;;;;;;;;;;1041564;28;3923;-47
2023/05/17 00:46:22;;;;;;;;;;;;;;;;;;1042154;28;1720;-48
2023/05/17 00:46:52;;;;;;;;;;;;;;;;;;1042898;28;3795;-48
2023/05/17 00:47:23;;;;;;;;;;;;;;;;;;1042043;28;3520;-46
2023/05/17 00:47:53;;;;;;;;;;;;;;;;;;1041888;28;3904;-47
2023/05/17 00:48:26;;;;;;;;;;;;;;;;;;1038629;28;2047;-45
2023/05/17 00:48:56;;;;;;;;;;;;;;;;;;1038073;28;4410;-48
2023/05/17 00:49:27;;;;;;;;;;;;;;;;;;1035085;28;3550;-46
2023/05/17 00:49:57;;;;;;;;;;;;;;;;;;1036133;28;3884;-46
2023/05/17 00:50:28;;;;;;;;;;;;;;;;;;1041441;28;2975;-48
2023/05/17 00:50:58;;;;;;;;;;;;;;;;;;1040156;28;4229;-46
2023/05/17 00:51:28;;;;;;;;;;;;;;;;;;1039273;28;2949;-46
2023/05/17 00:51:59;;;;;;;;;;;;;;;;;;1041923;28;3925;-52
2023/05/17 00:52:29;;;;;;;;;;;;;;;;;;1043196;28;1736;-48
2023/05/17 00:52:59;;;;;;;;;;;;;;;;;;1040214;28;3895;-50
2023/05/17 00:53:30;;;;;;;;;;;;;;;;;;1041538;28;3042;-50
2023/05/17 00:54:00;;;;;;;;;;;;;;;;;;1042666;28;3945;-49
2023/05/17 00:54:31;;;;;;;;;;;;;;;;;;1040524;28;2889;-48
2023/05/17 00:55:01;;;;;;;;;;;;;;;;;;1037860;28;4017;-51
2023/05/17 00:55:32;;;;;;;;;;;;;;;;;;1041477;28;3063;-51
2023/05/17 00:56:02;;;;;;;;;;;;;;;;;;1041271;28;3996;-48
2023/05/17 00:56:33;;;;;;;;;;;;;;;;;;1042569;28;2654;-47
2023/05/17 00:57:04;;;;;;;;;;;;;;;;;;1041172;28;3965;-48
2023/05/17 00:57:35;;;;;;;;;;;;;;;;;;1042308;28;3101;-48
2023/05/17 00:58:05;;;;;;;;;;;;;;;;;;1038908;28;4087;-46
2023/05/17 00:58:36;;;;;;;;;;;;;;;;;;1039538;28;3128;-45
2023/05/17 00:59:06;;;;;;;;;;;;;;;;;;1040668;28;4063;-46
2023/05/17 00:59:36;;;;;;;;;;;;;;;;;;1041909;28;3050;-50
2023/05/17 01:00:07;;;;;;;;;;;;;;;;;;1040210;28;3991;-46
2023/05/17 01:00:38;;;;;;;;;;;;;;;;;;1043321;28;3174;-46
2023/05/17 01:01:08;;;;;;;;;;;;;;;;;;1041858;28;3981;-47
2023/05/17 01:01:42;;;;;;;;;;;;;;;;;;1042479;28;2901;-48
2023/05/17 01:02:12;;;;;;;;;;;;;;;;;;1041108;28;4027;-48
2023/05/17 01:02:43;;;;;;;;;;;;;;;;;;1041066;28;3100;-48
2023/05/17 01:03:13;;;;;;;;;;;;;;;;;;1042463;28;4052;-46
2023/05/17 01:03:44;;;;;;;;;;;;;;;;;;1041369;28;2948;-46
2023/05/17 01:04:14;;;;;;;;;;;;;;;;;;1042266;28;4350;-49
2023/05/17 01:04:46;;;;;;;;;;;;;;;;;;1040320;28;2977;-46
2023/05/17 01:05:16;;;;;;;;;;;;;;;;;;1036184;28;4499;-47
2023/05/17 01:05:48;;;;;;;;;;;;;;;;;;1037125;28;2957;-48
2023/05/17 01:06:18;;;;;;;;;;;;;;;;;;1038466;28;3928;-45
2023/05/17 01:06:49;;;;;;;;;;;;;;;;;;1037992;28;1683;-47
2023/05/17 01:07:19;;;;;;;;;;;;;;;;;;1040898;28;3795;-50
2023/05/17 01:07:50;;;;;;;;;;;;;;;;;;1041011;28;2932;-48
2023/05/17 01:08:20;;;;;;;;;;;;;;;;;;1042294;28;3869;-47
2023/05/17 01:08:50;;;;;;;;;;;;;;;;;;1042282;28;1745;-46
2023/05/17 01:09:21;;;;;;;;;;;;;;;;;;1038494;28;3809;-52
2023/05/17 01:09:51;;;;;;;;;;;;;;;;;;1040532;28;3813;-49
2023/05/17 01:10:36;;;;;;;;;;;;;;;;;;1043542;28;1591;-50
2023/05/17 01:11:25;;;;;;;;;;;;;;;;;;1040883;28;4076;-48
2023/05/17 01:12:02;;;;;;;;;;;;;;;;;;1040378;28;3992;-52
2023/05/17 01:12:44;;;;;;;;;;;;;;;;;;1038080;28;2199;-45
2023/05/17 01:13:17;;;;;;;;;;;;;;;;;;1034568;28;3828;-50
2023/05/17 01:13:57;;;;;;;;;;;;;;;;;;1035551;28;3129;-45
2023/05/17 01:14:47;;;;;;;;;;;;;;;;;;1036335;28;4868;-47
2023/05/17 01:15:21;;;;;;;;;;;;;;;;;;1034810;28;5192;-46
2023/05/17 01:16:12;;;;;;;;;;;;;;;;;;1038094;28;3809;-47
2023/05/17 01:16:46;;;;;;;;;;;;;;;;;;1037535;28;1797;-50
2023/05/17 01:17:36;;;;;;;;;;;;;;;;;;1037412;28;3815;-49
2023/05/17 01:18:06;;;;;;;;;;;;;;;;;;1031328;28;3963;-50
2023/05/17 01:18:43;;;;;;;;;;;;;;;;;;1032994;28;3055;-46
2023/05/17 01:19:40;;;;;;;;;;;;;;;;;;1038402;28;3954;-48
2023/05/17 01:20:10;;;;;;;;;;;;;;;;;;1041878;28;4037;-45
2023/05/17 01:20:42;;;;;;;;;;;;;;;;;;1042676;28;1777;-48
2023/05/17 01:21:31;;;;;;;;;;;;;;;;;;1036891;28;4167;-47
2023/05/17 01:22:03;;;;;;;;;;;;;;;;;;1036043;28;4030;-51
2023/05/17 01:22:44;;;;;;;;;;;;;;;;;;1038532;28;1800;-45
2023/05/17 01:23:30;;;;;;;;;;;;;;;;;;1039591;28;3757;-49
2023/05/17 01:24:18;;;;;;;;;;;;;;;;;;1041198;28;3977;-47
2023/05/17 01:24:58;;;;;;;;;;;;;;;;;;1040742;28;3001;-50
2023/05/17 01:25:41;;;;;;;;;;;;;;;;;;1035054;28;3888;-50
2023/05/17 01:26:11;;;;;;;;;;;;;;;;;;1034665;28;4023;-46
2023/05/17 01:26:44;;;;;;;;;;;;;;;;;;1033762;28;2529;-48
2023/05/17 01:27:15;;;;;;;;;;;;;;;;;;1035579;28;3743;-47
2023/05/17 01:27:48;;;;;;;;;;;;;;;;;;1037661;28;2962;-46
2023/05/17 01:28:20;;;;;;;;;;;;;;;;;;1041010;28;3882;-46
2023/05/17 01:28:51;;;;;;;;;;;;;;;;;;1036765;28;3137;-52
2023/05/17 01:29:24;;;;;;;;;;;;;;;;;;1036282;28;4035;-47
2023/05/17 01:29:55;;;;;;;;;;;;;;;;;;1038073;28;3829;-49
2023/05/17 01:30:27;;;;;;;;;;;;;;;;;;1037929;28;2804;-47
2023/05/17 01:30:58;;;;;;;;;;;;;;;;;;1040993;28;3874;-48
2023/05/17 01:31:30;;;;;;;;;;;;;;;;;;1041008;28;3152;-47
2023/05/17 01:32:01;;;;;;;;;;;;;;;;;;1041427;28;4148;-48
2023/05/17 01:32:32;;;;;;;;;;;;;;;;;;1041914;28;2057;-48
2023/05/17 01:33:03;;;;;;;;;;;;;;;;;;1041424;28;3911;-46
2023/05/17 01:33:34;;;;;;;;;;;;;;;;;;1036265;28;3027;-49
2023/05/17 01:34:10;;;;;;;;;;;;;;;;;;1038372;28;4153;-49
2023/05/17 01:34:40;;;;;;;;;;;;;;;;;;1037079;28;2797;-47
2023/05/17 01:35:11;;;;;;;;;;;;;;;;;;1036735;28;4037;-47
2023/05/17 01:35:41;;;;;;;;;;;;;;;;;;1038323;28;3035;-49
2023/05/17 01:36:11;;;;;;;;;;;;;;;;;;1042696;28;3946;-47
2023/05/17 01:36:42;;;;;;;;;;;;;;;;;;1041905;28;2720;-46
2023/05/17 01:37:12;;;;;;;;;;;;;;;;;;1040320;28;3959;-48
2023/05/17 01:37:42;;;;;;;;;;;;;;;;;;1040989;28;2887;-52
2023/05/17 01:38:13;;;;;;;;;;;;;;;;;;1041859;28;4046;-48
2023/05/17 01:38:43;;;;;;;;;;;;;;;;;;1036722;28;3303;-48
2023/05/17 01:39:13;;;;;;;;;;;;;;;;;;1037256;28;4294;-47
2023/05/17 01:39:44;;;;;;;;;;;;;;;;;;1038478;28;1802;-47
2023/05/17 01:40:15;;;;;;;;;;;;;;;;;;1037005;28;3859;-50
2023/05/17 01:40:53;;;;;;;;;;;;;;;;;;1040863;28;3371;-45
2023/05/17 01:41:24;;;;;;;;;;;;;;;;;;1041802;28;3903;-48
2023/05/17 01:42:06;;;;;;;;;;;;;;;;;;1042954;28;4078;-47
2023/05/17 01:42:41;;;;;;;;;;;;;;;;;;1041125;28;2973;-47
2023/05/17 01:43:22;;;;;;;;;;;;;;;;;;1041409;28;3799;-49
2023/05/17 01:44:01;;;;;;;;;;;;;;;;;;1040863;28;3815;-44
2023/05/17 01:44:37;;;;;;;;;;;;;;;;;;1037043;28;3229;-49
2023/05/17 01:45:14;;;;;;;;;;;;;;;;;;1039312;28;4887;-45
2023/05/17 01:46:06;;;;;;;;;;;;;;;;;;1040803;28;2564;-45
2023/05/17 01:46:38;;;;;;;;;;;;;;;;;;1040999;28;4114;-46
2023/05/17 01:47:12;;;;;;;;;;;;;;;;;;1043344;28;3769;-48
2023/05/17 01:47:48;;;;;;;;;;;;;;;;;;1043603;28;1802;-46
2023/05/17 01:48:30;;;;;;;;;;;;;;;;;;1036263;28;5101;-51
2023/05/17 01:49:07;;;;;;;;;;;;;;;;;;1037550;28;3941;-48
2023/05/17 01:49:39;;;;;;;;;;;;;;;;;;1037244;28;3276;-47
2023/05/17 01:50:11;;;;;;;;;;;;;;;;;;1042174;28;4086;-46
2023/05/17 01:50:42;;;;;;;;;;;;;;;;;;1040675;28;3433;-47
2023/05/17 01:51:15;;;;;;;;;;;;;;;;;;1041881;28;4214;-47
2023/05/17 01:51:56;;;;;;;;;;;;;;;;;;1042798;28;3134;-50
2023/05/17 01:52:45;;;;;;;;;;;;;;;;;;1043210;28;3949;-51
2023/05/17 01:53:31;;;;;;;;;;;;;;;;;;1041775;28;3892;-46
2023/05/17 01:54:08;;;;;;;;;;;;;;;;;;1040563;28;3922;-48
2023/05/17 01:54:44;;;;;;;;;;;;;;;;;;1042241;28;3235;-48
2023/05/17 01:55:18;;;;;;;;;;;;;;;;;;1041917;28;3792;-46
2023/05/17 01:55:49;;;;;;;;;;;;;;;;;;1041834;28;2995;-48
2023/05/17 01:56:21;;;;;;;;;;;;;;;;;;1041602;28;3973;-47
2023/05/17 01:56:55;;;;;;;;;;;;;;;;;;1040615;28;4270;-49
2023/05/17 01:57:28;;;;;;;;;;;;;;;;;;1036863;28;2991;-48
2023/05/17 01:58:00;;;;;;;;;;;;;;;;;;1038408;28;4231;-49
2023/05/17 01:58:35;;;;;;;;;;;;;;;;;;1037316;28;3021;-47
2023/05/17 01:59:06;;;;;;;;;;;;;;;;;;1038545;28;3974;-46
2023/05/17 01:59:37;;;;;;;;;;;;;;;;;;1042650;28;3265;-48
2023/05/17 02:00:08;;;;;;;;;;;;;;;;;;1041047;28;4880;-46
2023/05/17 02:00:40;;;;;;;;;;;;;;;;;;1041954;28;3061;-47
2023/05/17 02:01:11;;;;;;;;;;;;;;;;;;1041210;28;4047;-48
2023/05/17 02:01:42;;;;;;;;;;;;;;;;;;1043566;28;1833;-50
2023/05/17 02:02:12;;;;;;;;;;;;;;;;;;1042341;28;4143;-47
2023/05/17 02:02:44;;;;;;;;;;;;;;;;;;1043127;28;1469;-46
2023/05/17 02:03:18;;;;;;;;;;;;;;;;;;1042191;28;3809;-46
2023/05/17 02:03:49;;;;;;;;;;;;;;;;;;1042762;28;2910;-47
2023/05/17 02:04:19;;;;;;;;;;;;;;;;;;1042525;28;3730;-47
2023/05/17 02:04:50;;;;;;;;;;;;;;;;;;1043990;28;1697;-49
2023/05/17 02:05:20;;;;;;;;;;;;;;;;;;1041988;28;3885;-52
2023/05/17 02:05:50;;;;;;;;;;;;;;;;;;1040989;28;3066;-48
2023/05/17 02:06:21;;;;;;;;;;;;;;;;;;1040839;28;3753;-49
2023/05/17 02:06:51;;;;;;;;;;;;;;;;;;1042296;28;3899;-46
2023/05/17 02:07:21;;;;;;;;;;;;;;;;;;1042364;28;3126;-51
2023/05/17 02:07:52;;;;;;;;;;;;;;;;;;1043025;28;3940;-47
2023/05/17 02:08:22;;;;;;;;;;;;;;;;;;1043053;28;2828;-46
2023/05/17 02:08:52;;;;;;;;;;;;;;;;;;1042691;28;3993;-51
2023/05/17 02:09:23;;;;;;;;;;;;;;;;;;1041060;28;3098;-46
2023/05/17 02:09:53;;;;;;;;;;;;;;;;;;1042228;28;3978;-46
2023/05/17 02:10:23;;;;;;;;;;;;;;;;;;1042282;28;2944;-48
2023/05/17 02:10:53;;;;;;;;;;;;;;;;;;1042350;28;4428;-47
2023/05/17 02:11:24;;;;;;;;;;;;;;;;;;1043550;28;2530;-46
2023/05/17 02:11:54;;;;;;;;;;;;;;;;;;1042569;28;4163;-48
2023/05/17 02:12:25;;;;;;;;;;;;;;;;;;1040687;28;2682;-49
2023/05/17 02:12:55;;;;;;;;;;;;;;;;;;1038066;28;4417;-46
2023/05/17 02:13:25;;;;;;;;;;;;;;;;;;1038695;28;2837;-49
2023/05/17 02:13:56;;;;;;;;;;;;;;;;;;1038802;28;4090;-47
2023/05/17 02:14:27;;;;;;;;;;;;;;;;;;1037536;28;3150;-48
2023/05/17 02:14:57;;;;;;;;;;;;;;;;;;1043856;28;3962;-49
2023/05/17 02:15:27;;;;;;;;;;;;;;;;;;1040340;28;2962;-48
2023/05/17 02:16:01;;;;;;;;;;;;;;;;;;1043464;28;3885;-48
2023/05/17 02:16:31;;;;;;;;;;;;;;;;;;1043288;28;1735;-48
2023/05/17 02:17:04;;;;;;;;;;;;;;;;;;1041251;28;3888;-49
2023/05/17 02:17:34;;;;;;;;;;;;;;;;;;1042645;28;1913;-52
2023/05/17 02:18:05;;;;;;;;;;;;;;;;;;1041299;28;3843;-46
2023/05/17 02:18:36;;;;;;;;;;;;;;;;;;1042688;28;2653;-49
2023/05/17 02:19:07;;;;;;;;;;;;;;;;;;1041898;28;4064;-45
2023/05/17 02:19:38;;;;;;;;;;;;;;;;;;1043418;28;1837;-46
2023/05/17 02:20:09;;;;;;;;;;;;;;;;;;1042875;28;4356;-48
2023/05/17 02:20:40;;;;;;;;;;;;;;;;;;1041754;28;2670;-47
2023/05/17 02:21:12;;;;;;;;;;;;;;;;;;1042889;28;4676;-51
2023/05/17 02:21:42;;;;;;;;;;;;;;;;;;1043592;28;1606;-46
2023/05/17 02:22:12;;;;;;;;;;;;;;;;;;1042678;28;3958;-47
2023/05/17 02:22:42;;;;;;;;;;;;;;;;;;1042842;28;1739;-46
2023/05/17 02:23:13;;;;;;;;;;;;;;;;;;1041889;28;3945;-48
2023/05/17 02:23:43;;;;;;;;;;;;;;;;;;1043254;28;2681;-48
2023/05/17 02:24:13;;;;;;;;;;;;;;;;;;1041995;28;4968;-48
2023/05/17 02:24:45;;;;;;;;;;;;;;;;;;1042518;28;1780;-50
2023/05/17 02:25:15;;;;;;;;;;;;;;;;;;1042127;28;3764;-51
2023/05/17 02:25:46;;;;;;;;;;;;;;;;;;1043239;28;3080;-48
2023/05/17 02:26:16;;;;;;;;;;;;;;;;;;1042018;28;3945;-45
2023/05/17 02:26:47;;;;;;;;;;;;;;;;;;1043149;28;1843;-52
2023/05/17 02:27:17;;;;;;;;;;;;;;;;;;1043553;28;3883;-50
2023/05/17 02:27:47;;;;;;;;;;;;;;;;;;1043504;28;1806;-45
2023/05/17 02:28:18;;;;;;;;;;;;;;;;;;1036248;28;3966;-47
2023/05/17 02:28:48;;;;;;;;;;;;;;;;;;1037442;28;3403;-48
2023/05/17 02:29:18;;;;;;;;;;;;;;;;;;1036827;28;3783;-47
2023/05/17 02:29:49;;;;;;;;;;;;;;;;;;1034291;28;2736;-46
2023/05/17 02:30:21;;;;;;;;;;;;;;;;;;1033744;28;3998;-48
2023/05/17 02:30:51;;;;;;;;;;;;;;;;;;1036211;28;3946;-51
2023/05/17 02:31:25;;;;;;;;;;;;;;;;;;1038334;28;2971;-49
2023/05/17 02:31:55;;;;;;;;;;;;;;;;;;1041805;28;3820;-47
2023/05/17 02:32:27;;;;;;;;;;;;;;;;;;1042307;28;2644;-48
2023/05/17 02:32:57;;;;;;;;;;;;;;;;;;1042553;28;3998;-48
2023/05/17 02:33:28;;;;;;;;;;;;;;;;;;1041440;28;3367;-47
2023/05/17 02:33:58;;;;;;;;;;;;;;;;;;1042979;28;4047;-48
2023/05/17 02:34:28;;;;;;;;;;;;;;;;;;1042523;28;1443;-52
2023/05/17 02:34:59;;;;;;;;;;;;;;;;;;1042431;28;4037;-50
2023/05/17 02:35:29;;;;;;;;;;;;;;;;;;1041350;28;3168;-45
2023/05/17 02:36:00;;;;;;;;;;;;;;;;;;1040990;28;4257;-47
2023/05/17 02:36:31;;;;;;;;;;;;;;;;;;1038776;28;2878;-47
2023/05/17 02:37:01;;;;;;;;;;;;;;;;;;1037096;28;4478;-50
2023/05/17 02:37:31;;;;;;;;;;;;;;;;;;1039072;28;2563;-51
2023/05/17 02:38:02;;;;;;;;;;;;;;;;;;1037203;28;3830;-50
2023/05/17 02:38:32;;;;;;;;;;;;;;;;;;1043045;28;2944;-47
2023/05/17 02:39:02;;;;;;;;;;;;;;;;;;1041162;28;3986;-49
2023/05/17 02:39:33;;;;;;;;;;;;;;;;;;1042181;28;2885;-54
2023/05/17 02:40:08;;;;;;;;;;;;;;;;;;1037977;28;4058;-47
2023/05/17 02:40:39;;;;;;;;;;;;;;;;;;1033113;28;3076;-49
2023/05/17 02:41:10;;;;;;;;;;;;;;;;;;1037853;28;3937;-46
2023/05/17 02:41:40;;;;;;;;;;;;;;;;;;1039720;28;2583;-49
2023/05/17 02:42:10;;;;;;;;;;;;;;;;;;1041376;28;3824;-50
2023/05/17 02:42:41;;;;;;;;;;;;;;;;;;1042572;28;2896;-49
2023/05/17 02:43:11;;;;;;;;;;;;;;;;;;1040187;28;4401;-49
2023/05/17 02:43:41;;;;;;;;;;;;;;;;;;1043473;28;3108;-49
2023/05/17 02:44:11;;;;;;;;;;;;;;;;;;1039641;28;3789;-51
2023/05/17 02:44:42;;;;;;;;;;;;;;;;;;1042922;28;2949;-51
2023/05/17 02:45:12;;;;;;;;;;;;;;;;;;1039937;28;3956;-48
2023/05/17 02:45:42;;;;;;;;;;;;;;;;;;1042716;28;3097;-45
2023/05/17 02:46:13;;;;;;;;;;;;;;;;;;1042300;28;3998;-47
2023/05/17 02:46:43;;;;;;;;;;;;;;;;;;1041528;28;3480;-46
2023/05/17 02:47:13;;;;;;;;;;;;;;;;;;1040426;28;3932;-47
2023/05/17 02:47:43;;;;;;;;;;;;;;;;;;1041964;28;2544;-48
2023/05/17 02:48:14;;;;;;;;;;;;;;;;;;1042121;28;3960;-49
2023/05/17 02:48:44;;;;;;;;;;;;;;;;;;1041193;28;1946;-46
2023/05/17 02:49:15;;;;;;;;;;;;;;;;;;1040346;28;3932;-48
2023/05/17 02:49:45;;;;;;;;;;;;;;;;;;1042437;28;2825;-50
2023/05/17 02:50:16;;;;;;;;;;;;;;;;;;1041006;28;4252;-51
2023/05/17 02:50:46;;;;;;;;;;;;;;;;;;1040933;28;3109;-51
2023/05/17 02:51:16;;;;;;;;;;;;;;;;;;1042094;28;3703;-50
2023/05/17 02:51:46;;;;;;;;;;;;;;;;;;1041937;28;2953;-47
2023/05/17 02:52:17;;;;;;;;;;;;;;;;;;1042211;28;4017;-46
2023/05/17 02:52:47;;;;;;;;;;;;;;;;;;1040989;28;2821;-47
2023/05/17 02:53:17;;;;;;;;;;;;;;;;;;1042234;28;3870;-48
2023/05/17 02:53:48;;;;;;;;;;;;;;;;;;1041739;28;2941;-47
2023/05/17 02:54:18;;;;;;;;;;;;;;;;;;1042778;28;3989;-47
2023/05/17 02:54:48;;;;;;;;;;;;;;;;;;1041722;28;2960;-48
2023/05/17 02:55:19;;;;;;;;;;;;;;;;;;1041137;28;3965;-46
2023/05/17 02:55:49;;;;;;;;;;;;;;;;;;1037277;28;2514;-46
2023/05/17 02:56:19;;;;;;;;;;;;;;;;;;1037208;28;3730;-48
2023/05/17 02:56:50;;;;;;;;;;;;;;;;;;1037860;28;2893;-48
2023/05/17 02:57:20;;;;;;;;;;;;;;;;;;1037805;28;3907;-48
2023/05/17 02:57:50;;;;;;;;;;;;;;;;;;1042242;28;2870;-47
2023/05/17 02:58:21;;;;;;;;;;;;;;;;;;1040068;28;3856;-47
2023/05/17 02:58:51;;;;;;;;;;;;;;;;;;1042465;28;3789;-46
2023/05/17 02:59:21;;;;;;;;;;;;;;;;;;1043131;28;1807;-46
2023/05/17 02:59:51;;;;;;;;;;;;;;;;;;1041615;28;3966;-47
2023/05/17 03:00:22;;;;;;;;;;;;;;;;;;1039495;28;3368;-52
2023/05/17 03:00:52;;;;;;;;;;;;;;;;;;1039524;28;3937;-48
2023/05/17 03:01:22;;;;;;;;;;;;;;;;;;1041380;28;3100;-45
2023/05/17 03:01:53;;;;;;;;;;;;;;;;;;1040999;28;3964;-50
2023/05/17 03:02:23;;;;;;;;;;;;;;;;;;1041433;28;3127;-46
2023/05/17 03:02:53;;;;;;;;;;;;;;;;;;1042647;28;3964;-49
2023/05/17 03:03:24;;;;;;;;;;;;;;;;;;1042105;28;1879;-49
2023/05/17 03:03:54;;;;;;;;;;;;;;;;;;1042591;28;4049;-44
2023/05/17 03:04:24;;;;;;;;;;;;;;;;;;1042066;28;2967;-50
2023/05/17 03:04:54;;;;;;;;;;;;;;;;;;1040818;28;3970;-47
2023/05/17 03:05:25;;;;;;;;;;;;;;;;;;1043127;28;3485;-52
2023/05/17 03:05:58;;;;;;;;;;;;;;;;;;1041334;28;4106;-49
2023/05/17 03:06:30;;;;;;;;;;;;;;;;;;1040088;28;3011;-49
2023/05/17 03:07:00;;;;;;;;;;;;;;;;;;1040924;28;3879;-48
2023/05/17 03:07:30;;;;;;;;;;;;;;;;;;1041421;28;2940;-46
2023/05/17 03:08:00;;;;;;;;;;;;;;;;;;1041495;28;3836;-48
2023/05/17 03:08:31;;;;;;;;;;;;;;;;;;1040946;28;2973;-46
2023/05/17 03:09:01;;;;;;;;;;;;;;;;;;1039967;28;3978;-52
2023/05/17 03:09:31;;;;;;;;;;;;;;;;;;1041789;28;2947;-49
2023/05/17 03:10:02;;;;;;;;;;;;;;;;;;1041751;28;6257;-48
2023/05/17 03:10:32;;;;;;;;;;;;;;;;;;1041425;28;3088;-51
2023/05/17 03:11:02;;;;;;;;;;;;;;;;;;1039483;28;3950;-48
2023/05/17 03:11:33;;;;;;;;;;;;;;;;;;1043036;28;2984;-48
2023/05/17 03:12:03;;;;;;;;;;;;;;;;;;1042715;28;4431;-46
2023/05/17 03:12:33;;;;;;;;;;;;;;;;;;1042824;28;2953;-45
2023/05/17 03:13:04;;;;;;;;;;;;;;;;;;1041156;28;4897;-47
2023/05/17 03:13:34;;;;;;;;;;;;;;;;;;1043701;28;1147;-47
2023/05/17 03:14:04;;;;;;;;;;;;;;;;;;1041363;28;3970;-47
2023/05/17 03:14:35;;;;;;;;;;;;;;;;;;1042827;28;3089;-46
2023/05/17 03:15:05;;;;;;;;;;;;;;;;;;1041143;28;3842;-46
2023/05/17 03:15:36;;;;;;;;;;;;;;;;;;1041395;28;3080;-49
2023/05/17 03:16:08;;;;;;;;;;;;;;;;;;1042244;28;3807;-45
2023/05/17 03:16:38;;;;;;;;;;;;;;;;;;1041522;28;3136;-46
2023/05/17 03:17:08;;;;;;;;;;;;;;;;;;1042676;28;3792;-48
2023/05/17 03:17:39;;;;;;;;;;;;;;;;;;1043375;28;1907;-45
2023/05/17 03:18:09;;;;;;;;;;;;;;;;;;1041077;28;4088;-46
2023/05/17 03:18:39;;;;;;;;;;;;;;;;;;1041882;28;1990;-45
2023/05/17 03:19:10;;;;;;;;;;;;;;;;;;1042239;28;4858;-50
2023/05/17 03:19:40;;;;;;;;;;;;;;;;;;1042876;28;1912;-47
2023/05/17 03:20:10;;;;;;;;;;;;;;;;;;1042011;28;4576;-50
2023/05/17 03:20:41;;;;;;;;;;;;;;;;;;1042555;28;2888;-45
2023/05/17 03:21:11;;;;;;;;;;;;;;;;;;1040626;28;3954;-48
2023/05/17 03:21:41;;;;;;;;;;;;;;;;;;1041578;28;1991;-47
2023/05/17 03:22:12;;;;;;;;;;;;;;;;;;1043224;28;4242;-49
2023/05/17 03:22:42;;;;;;;;;;;;;;;;;;1042005;28;2871;-47
2023/05/17 03:23:12;;;;;;;;;;;;;;;;;;1043381;28;3887;-44
2023/05/17 03:23:42;;;;;;;;;;;;;;;;;;1042570;28;2904;-51
2023/05/17 03:24:13;;;;;;;;;;;;;;;;;;1041582;28;3889;-49
2023/05/17 03:24:43;;;;;;;;;;;;;;;;;;1042080;28;4312;-50
2023/05/17 03:25:13;;;;;;;;;;;;;;;;;;1037175;28;4179;-47
2023/05/17 03:25:44;;;;;;;;;;;;;;;;;;1035338;28;3235;-48
2023/05/17 03:26:15;;;;;;;;;;;;;;;;;;1036206;28;4175;-48
2023/05/17 03:26:45;;;;;;;;;;;;;;;;;;1038918;28;2923;-47
2023/05/17 03:27:15;;;;;;;;;;;;;;;;;;1041808;28;4693;-48
2023/05/17 03:27:45;;;;;;;;;;;;;;;;;;1040960;28;3363;-47
2023/05/17 03:28:16;;;;;;;;;;;;;;;;;;1040677;28;4954;-48
2023/05/17 03:28:46;;;;;;;;;;;;;;;;;;1041155;28;2992;-47
2023/05/17 03:29:16;;;;;;;;;;;;;;;;;;1042317;28;3788;-47
2023/05/17 03:29:47;;;;;;;;;;;;;;;;;;1042163;28;2962;-47
2023/05/17 03:30:17;;;;;;;;;;;;;;;;;;1039281;28;3840;-48
2023/05/17 03:30:47;;;;;;;;;;;;;;;;;;1042639;28;2802;-47
2023/05/17 03:31:18;;;;;;;;;;;;;;;;;;1040911;28;3772;-51
2023/05/17 03:31:48;;;;;;;;;;;;;;;;;;1040305;28;2970;-49
2023/05/17 03:32:18;;;;;;;;;;;;;;;;;;1041372;28;3881;-51
2023/05/17 03:32:49;;;;;;;;;;;;;;;;;;1043707;28;1677;-48
2023/05/17 03:33:19;;;;;;;;;;;;;;;;;;1040862;28;4050;-47
2023/05/17 03:33:49;;;;;;;;;;;;;;;;;;1036995;28;3284;-46
2023/05/17 03:34:19;;;;;;;;;;;;;;;;;;1039805;28;4046;-50
2023/05/17 03:34:50;;;;;;;;;;;;;;;;;;1038529;28;1878;-47
2023/05/17 03:35:20;;;;;;;;;;;;;;;;;;1037627;28;3718;-48
2023/05/17 03:35:51;;;;;;;;;;;;;;;;;;1041613;28;2988;-48
2023/05/17 03:36:22;;;;;;;;;;;;;;;;;;1039413;28;3920;-49
2023/05/17 03:36:52;;;;;;;;;;;;;;;;;;1034130;28;4750;-45
2023/05/17 03:37:22;;;;;;;;;;;;;;;;;;1042515;28;2795;-49
2023/05/17 03:37:52;;;;;;;;;;;;;;;;;;1042353;28;3857;-48
2023/05/17 03:38:23;;;;;;;;;;;;;;;;;;1042845;28;2828;-49
2023/05/17 03:38:53;;;;;;;;;;;;;;;;;;1040772;28;4107;-46
2023/05/17 03:39:23;;;;;;;;;;;;;;;;;;1040610;28;2946;-47
2023/05/17 03:39:53;;;;;;;;;;;;;;;;;;1040377;28;4001;-46